createdAt,value
2018-01-08T00:01:55.650Z,18.30
2018-01-08T00:04:21.661Z,19.43
2018-01-08T00:06:47.652Z,19.70
2018-01-08T00:09:13.728Z,21.53
2018-01-08T00:11:39.712Z,18.70
2018-01-08T00:14:05.688Z,19.37
2018-01-08T00:16:31.657Z,19.00
2018-01-08T00:18:57.634Z,21.00
2018-01-08T00:21:23.577Z,17.53
2018-01-08T00:23:49.557Z,21.07
2018-01-08T00:26:15.526Z,19.17
2018-01-08T00:28:41.469Z,19.60
2018-01-08T00:31:07.435Z,20.67
2018-01-08T00:33:33.377Z,19.20
2018-01-08T00:35:59.357Z,21.03
2018-01-08T00:38:25.301Z,20.80
2018-01-08T00:40:51.263Z,20.27
2018-01-08T00:43:17.990Z,18.67
2018-01-08T00:45:44.001Z,19.13
2018-01-08T00:48:09.945Z,20.47
2018-01-08T00:50:35.880Z,19.13
2018-01-08T00:53:01.883Z,19.90
2018-01-08T00:55:27.816Z,21.07
2018-01-08T00:57:53.743Z,19.70
2018-01-08T01:00:20.463Z,19.77
2018-01-08T01:02:46.432Z,19.93
2018-01-08T01:05:12.409Z,20.73
2018-01-08T01:07:38.339Z,18.77
2018-01-08T01:10:04.308Z,18.80
2018-01-08T01:12:30.261Z,20.13
2018-01-08T01:14:56.981Z,18.30
2018-01-08T01:17:22.920Z,18.67
2018-01-08T01:19:48.904Z,18.20
2018-01-08T01:22:14.890Z,18.40
2018-01-08T01:24:40.864Z,19.97
2018-01-08T01:27:07.585Z,20.00
2018-01-08T01:29:33.533Z,18.53
2018-01-08T01:31:59.476Z,16.37
2018-01-08T01:34:26.205Z,18.47
2018-01-08T01:36:52.136Z,19.40
2018-01-08T01:39:18.085Z,17.90
2018-01-08T01:41:44.084Z,17.13
2018-01-08T01:44:10.024Z,17.27
2018-01-08T01:46:42.965Z,19.40
2018-01-08T01:49:19.780Z,17.43
2018-01-08T01:51:45.756Z,17.50
2018-01-08T01:54:11.729Z,19.00
2018-01-08T01:56:38.436Z,17.27
2018-01-08T01:59:04.372Z,16.03
2018-01-08T02:01:30.379Z,16.40
2018-01-08T02:03:56.355Z,17.97
2018-01-08T02:06:22.287Z,17.83
2018-01-08T02:08:48.272Z,17.53
2018-01-08T02:11:14.976Z,15.97
2018-01-08T02:13:40.961Z,18.20
2018-01-08T02:16:07.682Z,17.50
2018-01-08T02:18:33.669Z,18.23
2018-01-08T02:20:59.682Z,17.47
2018-01-08T02:23:26.365Z,15.97
2018-01-08T02:25:52.349Z,16.63
2018-01-08T02:28:18.317Z,15.67
2018-01-08T02:30:44.323Z,16.07
2018-01-08T02:33:10.303Z,16.07
2018-01-08T02:35:36.245Z,16.60
2018-01-08T02:38:02.250Z,16.70
2018-01-08T02:40:28.934Z,14.33
2018-01-08T02:42:54.909Z,15.90
2018-01-08T02:45:20.897Z,14.90
2018-01-08T02:47:46.906Z,16.70
2018-01-08T02:50:13.657Z,15.43
2018-01-08T02:52:40.369Z,16.50
2018-01-08T02:55:06.350Z,15.83
2018-01-08T02:57:33.045Z,14.30
2018-01-08T02:59:59.017Z,14.87
2018-01-08T03:02:24.957Z,15.50
2018-01-08T03:04:52.416Z,15.00
2018-01-08T03:07:18.370Z,14.27
2018-01-08T03:09:44.405Z,15.57
2018-01-08T03:12:10.350Z,15.20
2018-01-08T03:14:37.073Z,14.83
2018-01-08T03:17:03.054Z,15.73
2018-01-08T03:19:29.000Z,14.13
2018-01-08T03:21:54.981Z,16.10
2018-01-08T03:24:20.960Z,14.80
2018-01-08T03:26:46.959Z,15.50
2018-01-08T03:29:12.937Z,17.10
2018-01-08T03:31:38.886Z,14.57
2018-01-08T03:34:04.889Z,14.13
2018-01-08T03:36:31.653Z,14.77
2018-01-08T03:38:57.610Z,13.97
2018-01-08T03:41:23.605Z,15.23
2018-01-08T03:43:49.553Z,13.23
2018-01-08T03:46:16.265Z,14.40
2018-01-08T03:48:42.244Z,14.67
2018-01-08T03:51:08.933Z,15.07
2018-01-08T03:53:34.924Z,13.97
2018-01-08T03:56:01.639Z,13.93
2018-01-08T03:58:27.597Z,12.40
2018-01-08T04:00:54.357Z,13.47
2018-01-08T04:03:20.300Z,15.10
2018-01-08T04:05:47.013Z,13.60
2018-01-08T04:08:13.016Z,14.90
2018-01-08T04:10:38.957Z,13.73
2018-01-08T04:13:04.941Z,15.63
2018-01-08T04:15:30.982Z,15.50
2018-01-08T04:17:58.405Z,15.47
2018-01-08T04:20:24.381Z,14.70
2018-01-08T04:22:50.357Z,15.67
2018-01-08T04:25:16.337Z,16.07
2018-01-08T04:27:42.312Z,15.37
2018-01-08T04:30:09.057Z,15.47
2018-01-08T04:32:35.758Z,15.90
2018-01-08T04:35:01.766Z,15.60
2018-01-08T04:37:27.710Z,17.40
2018-01-08T04:39:53.694Z,17.13
2018-01-08T04:42:19.638Z,30.70
2018-01-08T04:44:45.631Z,37.63
2018-01-08T04:47:11.631Z,30.67
2018-01-08T04:49:38.345Z,31.23
2018-01-08T04:52:04.327Z,25.50
2018-01-08T04:54:31.013Z,23.77
2018-01-08T04:56:56.989Z,22.23
2018-01-08T04:59:22.935Z,16.50
2018-01-08T05:01:48.936Z,16.67
2018-01-08T05:04:14.942Z,17.50
2018-01-08T05:06:40.946Z,16.23
2018-01-08T05:09:06.914Z,16.27
2018-01-08T05:11:32.892Z,14.57
2018-01-08T05:13:58.873Z,15.90
2018-01-08T05:16:25.858Z,16.90
2018-01-08T05:18:51.849Z,15.50
2018-01-08T05:21:17.817Z,16.90
2018-01-08T05:23:43.806Z,17.20
2018-01-08T05:26:10.521Z,16.53
2018-01-08T05:28:36.477Z,15.23
2018-01-08T05:31:03.254Z,15.43
2018-01-08T05:33:29.233Z,15.70
2018-01-08T05:35:55.210Z,17.10
2018-01-08T05:38:21.193Z,16.63
2018-01-08T05:40:47.209Z,15.70
2018-01-08T05:43:13.941Z,15.70
2018-01-08T05:45:39.888Z,17.27
2018-01-08T05:48:05.862Z,15.53
2018-01-08T05:50:31.845Z,15.20
2018-01-08T05:52:57.830Z,17.00
2018-01-08T05:55:23.769Z,16.80
2018-01-08T05:57:49.717Z,16.63
2018-01-08T06:00:15.729Z,16.97
2018-01-08T06:02:41.674Z,15.37
2018-01-08T06:05:07.657Z,15.33
2018-01-08T06:07:33.608Z,18.13
2018-01-08T06:09:59.606Z,16.07
2018-01-08T06:12:25.550Z,16.97
2018-01-08T06:14:51.510Z,15.80
2018-01-08T06:17:18.249Z,16.03
2018-01-08T06:19:44.221Z,17.03
2018-01-08T06:22:10.937Z,16.67
2018-01-08T06:24:36.914Z,15.50
2018-01-08T06:27:03.657Z,16.20
2018-01-08T06:29:30.343Z,15.73
2018-01-08T06:31:56.558Z,15.80
2018-01-08T06:34:23.258Z,16.60
2018-01-08T06:36:49.197Z,22.47
2018-01-08T06:39:15.180Z,16.10
2018-01-08T06:41:41.182Z,14.87
2018-01-08T06:44:07.133Z,16.60
2018-01-08T06:46:33.072Z,15.87
2018-01-08T06:48:59.046Z,16.20
2018-01-08T06:51:25.005Z,22.63
2018-01-08T06:53:50.981Z,16.37
2018-01-08T06:56:16.995Z,16.87
2018-01-08T06:58:44.464Z,17.53
2018-01-08T07:01:10.430Z,22.00
2018-01-08T07:03:37.118Z,17.57
2018-01-08T07:06:03.105Z,18.17
2018-01-08T07:08:29.058Z,15.90
2018-01-08T07:10:55.769Z,18.20
2018-01-08T07:13:21.713Z,16.70
2018-01-08T07:15:47.753Z,17.97
2018-01-08T07:18:13.701Z,16.20
2018-01-08T07:20:39.695Z,14.70
2018-01-08T07:23:05.653Z,16.30
2018-01-08T07:25:31.657Z,16.97
2018-01-08T07:27:57.597Z,17.40
2018-01-08T07:30:23.578Z,17.67
2018-01-08T07:32:49.534Z,16.67
2018-01-08T07:35:16.261Z,16.50
2018-01-08T07:37:42.237Z,15.47
2018-01-08T07:40:08.185Z,17.50
2018-01-08T07:42:34.208Z,17.13
2018-01-08T07:45:00.169Z,17.33
2018-01-08T07:47:26.149Z,15.20
2018-01-08T07:49:52.896Z,17.30
2018-01-08T07:52:18.909Z,18.73
2018-01-08T07:54:44.945Z,17.27
2018-01-08T07:57:10.929Z,15.53
2018-01-08T07:59:36.965Z,18.47
2018-01-08T08:02:03.715Z,14.90
2018-01-08T08:04:30.446Z,15.70
2018-01-08T08:06:56.417Z,15.20
2018-01-08T08:09:22.385Z,16.03
2018-01-08T08:11:48.439Z,16.07
2018-01-08T08:14:14.480Z,17.03
2018-01-08T08:16:40.433Z,16.27
2018-01-08T08:19:07.149Z,16.50
2018-01-08T08:21:33.125Z,17.33
2018-01-08T08:23:59.072Z,16.97
2018-01-08T08:26:25.789Z,18.00
2018-01-08T08:28:51.773Z,18.97
2018-01-08T08:31:17.751Z,18.80
2018-01-08T08:33:43.701Z,16.70
2018-01-08T08:36:09.704Z,16.50
2018-01-08T08:38:35.699Z,19.13
2018-01-08T08:41:02.410Z,16.90
2018-01-08T08:43:28.353Z,16.73
2018-01-08T08:45:54.325Z,19.17
2018-01-08T08:48:21.027Z,17.57
2018-01-08T08:50:47.033Z,17.63
2018-01-08T08:53:13.018Z,18.37
2018-01-08T08:55:40.494Z,17.00
2018-01-08T08:58:06.465Z,17.77
2018-01-08T09:00:33.180Z,16.13
2018-01-08T09:02:59.158Z,17.33
2018-01-08T09:05:25.109Z,17.80
2018-01-08T09:07:51.110Z,17.80
2018-01-08T09:10:17.134Z,16.73
2018-01-08T09:12:43.095Z,17.80
2018-01-08T09:15:09.780Z,16.60
2018-01-08T09:17:35.761Z,17.90
2018-01-08T09:20:01.706Z,16.37
2018-01-08T09:22:28.433Z,18.30
2018-01-08T09:24:54.372Z,17.40
2018-01-08T09:27:20.339Z,18.30
2018-01-08T09:29:47.076Z,16.97
2018-01-08T09:32:13.029Z,17.23
2018-01-08T09:34:39.821Z,17.40
2018-01-08T09:37:05.773Z,19.03
2018-01-08T09:39:31.759Z,18.03
2018-01-08T09:41:58.477Z,20.30
2018-01-08T09:44:24.420Z,18.27
2018-01-08T09:46:50.413Z,18.33
2018-01-08T09:49:16.389Z,17.30
2018-01-08T09:51:42.357Z,18.97
2018-01-08T09:54:09.077Z,16.43
2018-01-08T09:56:35.061Z,15.70
2018-01-08T09:59:00.992Z,17.00
2018-01-08T10:01:27.030Z,17.17
2018-01-08T10:04:05.489Z,16.67
2018-01-08T10:06:44.066Z,15.50
2018-01-08T10:09:23.297Z,16.17
2018-01-08T10:12:01.773Z,17.63
2018-01-08T10:14:40.314Z,15.13
2018-01-08T10:17:18.767Z,15.90
2018-01-08T10:20:01.650Z,16.27
2018-01-08T10:22:27.678Z,15.27
2018-01-08T10:24:54.397Z,16.30
2018-01-08T10:27:20.333Z,16.43
2018-01-08T10:29:46.338Z,15.23
2018-01-08T10:32:12.285Z,17.17
2018-01-08T10:34:38.241Z,14.63
2018-01-08T10:37:04.202Z,16.53
2018-01-08T10:39:30.917Z,16.13
2018-01-08T10:42:03.063Z,17.60
2018-01-08T10:44:35.269Z,16.30
2018-01-08T10:47:07.385Z,17.07
2018-01-08T10:49:39.505Z,15.03
2018-01-08T10:52:05.409Z,16.90
2018-01-08T10:54:33.150Z,16.30
2018-01-08T10:56:59.088Z,13.70
2018-01-08T10:59:25.066Z,15.60
2018-01-08T11:01:57.889Z,15.80
2018-01-08T11:04:23.836Z,17.30
2018-01-08T11:06:49.820Z,16.27
2018-01-08T11:09:15.791Z,15.37
2018-01-08T11:11:41.819Z,17.43
2018-01-08T11:14:08.533Z,16.00
2018-01-08T11:16:34.495Z,16.07
2018-01-08T11:19:01.181Z,14.03
2018-01-08T11:21:27.161Z,15.80
2018-01-08T11:23:53.138Z,15.03
2018-01-08T11:26:19.110Z,15.77
2018-01-08T11:28:45.109Z,15.03
2018-01-08T11:31:11.050Z,16.63
2018-01-08T11:33:37.025Z,16.23
2018-01-08T11:36:02.968Z,16.20
2018-01-08T11:38:28.946Z,15.30
2018-01-08T11:40:55.665Z,15.90
2018-01-08T11:43:21.605Z,15.77
2018-01-08T11:45:48.339Z,16.53
2018-01-08T11:48:14.275Z,15.80
2018-01-08T11:50:40.255Z,16.47
2018-01-08T11:53:06.929Z,16.70
2018-01-08T11:55:32.933Z,13.33
2018-01-08T11:57:59.610Z,15.90
2018-01-08T12:00:25.554Z,15.40
2018-01-08T12:02:51.561Z,14.90
2018-01-08T12:05:18.273Z,16.30
2018-01-08T12:07:44.262Z,15.67
2018-01-08T12:10:10.203Z,15.73
2018-01-08T12:12:36.177Z,14.23
2018-01-08T12:15:02.161Z,16.57
2018-01-08T12:17:28.841Z,14.93
2018-01-08T12:19:54.834Z,14.13
2018-01-08T12:22:20.779Z,14.83
2018-01-08T12:24:47.534Z,15.60
2018-01-08T12:27:14.224Z,15.60
2018-01-08T12:29:40.291Z,16.13
2018-01-08T12:32:06.273Z,17.70
2018-01-08T12:34:32.213Z,15.50
2018-01-08T12:36:58.185Z,18.10
2018-01-08T12:39:24.185Z,16.33
2018-01-08T12:41:50.165Z,16.10
2018-01-08T12:44:16.177Z,16.20
2018-01-08T12:46:42.128Z,20.97
2018-01-08T12:49:08.101Z,27.17
2018-01-08T12:51:34.793Z,16.90
2018-01-08T12:54:00.775Z,16.50
2018-01-08T12:56:26.717Z,18.33
2018-01-08T12:58:52.705Z,18.40
2018-01-08T13:01:18.653Z,17.47
2018-01-08T13:03:45.395Z,20.10
2018-01-08T13:06:11.417Z,18.93
2018-01-08T13:08:37.360Z,18.33
2018-01-08T13:11:03.357Z,18.80
2018-01-08T13:13:30.045Z,23.67
2018-01-08T13:15:56.053Z,24.90
2018-01-08T13:18:22.767Z,18.57
2018-01-08T13:20:48.740Z,46.73
2018-01-08T13:23:15.601Z,20.63
2018-01-08T13:25:42.282Z,23.10
2018-01-08T13:28:08.235Z,22.73
2018-01-08T13:30:34.210Z,19.90
2018-01-08T13:33:00.195Z,22.00
2018-01-08T13:35:26.185Z,24.43
2018-01-08T13:37:52.129Z,24.07
2018-01-08T13:40:18.085Z,22.00
2018-01-08T13:42:44.089Z,20.83
2018-01-08T13:45:10.042Z,21.77
2018-01-08T13:47:36.765Z,20.17
2018-01-08T13:50:02.734Z,20.70
2018-01-08T13:52:29.478Z,17.83
2018-01-08T13:54:56.158Z,18.00
2018-01-08T13:57:22.134Z,28.80
2018-01-08T13:59:48.109Z,21.30
2018-01-08T14:02:14.898Z,17.67
2018-01-08T14:04:40.849Z,18.00
2018-01-08T14:07:06.785Z,22.03
2018-01-08T14:09:32.780Z,20.20
2018-01-08T14:11:58.765Z,23.27
2018-01-08T14:14:24.725Z,18.20
2018-01-08T14:16:50.709Z,25.70
2018-01-08T14:19:16.733Z,17.10
2018-01-08T14:21:42.677Z,17.40
2018-01-08T14:24:08.657Z,18.40
2018-01-08T14:26:35.330Z,17.83
2018-01-08T14:29:02.069Z,17.03
2018-01-08T14:31:29.542Z,16.80
2018-01-08T14:33:55.505Z,19.93
2018-01-08T14:36:22.237Z,16.87
2018-01-08T14:38:48.229Z,17.43
2018-01-08T14:41:14.233Z,19.63
2018-01-08T14:43:40.197Z,21.00
2018-01-08T14:46:06.173Z,20.37
2018-01-08T14:48:32.173Z,32.77
2018-01-08T14:50:58.157Z,24.97
2018-01-08T14:53:24.875Z,41.17
2018-01-08T14:55:50.858Z,22.23
2018-01-08T14:58:17.608Z,17.67
2018-01-08T15:00:44.389Z,18.97
2018-01-08T15:03:10.345Z,17.57
2018-01-08T15:05:36.333Z,18.90
2018-01-08T15:08:02.293Z,18.30
2018-01-08T15:10:28.241Z,16.80
2018-01-08T15:12:54.212Z,19.43
2018-01-08T15:15:20.255Z,16.40
2018-01-08T15:17:46.257Z,17.07
2018-01-08T15:20:12.229Z,17.70
2018-01-08T15:22:38.201Z,18.37
2018-01-08T15:25:04.181Z,20.10
2018-01-08T15:27:30.178Z,19.83
2018-01-08T15:29:56.122Z,19.23
2018-01-08T15:32:22.108Z,18.37
2018-01-08T15:34:48.090Z,18.07
2018-01-08T15:37:14.077Z,17.90
2018-01-08T15:39:40.028Z,17.90
2018-01-08T15:42:06.914Z,18.53
2018-01-08T15:44:32.894Z,17.80
2018-01-08T15:46:58.850Z,17.33
2018-01-08T15:49:24.831Z,17.83
2018-01-08T15:51:50.817Z,17.90
2018-01-08T15:54:17.606Z,17.80
2018-01-08T15:56:43.556Z,19.00
2018-01-08T15:59:09.553Z,17.37
2018-01-08T16:01:36.246Z,18.00
2018-01-08T16:04:02.247Z,17.10
2018-01-08T16:06:28.998Z,18.90
2018-01-08T16:08:55.698Z,17.70
2018-01-08T16:11:21.655Z,19.83
2018-01-08T16:13:47.744Z,17.93
2018-01-08T16:16:13.701Z,18.77
2018-01-08T16:18:39.731Z,18.77
2018-01-08T16:21:05.698Z,18.07
2018-01-08T16:23:31.681Z,19.23
2018-01-08T16:25:58.377Z,18.53
2018-01-08T16:28:24.357Z,18.17
2018-01-08T16:30:51.089Z,16.80
2018-01-08T16:33:17.094Z,18.20
2018-01-08T16:35:43.781Z,19.17
2018-01-08T16:38:09.777Z,19.03
2018-01-08T16:40:35.761Z,17.87
2018-01-08T16:43:01.751Z,18.60
2018-01-08T16:45:27.729Z,19.00
2018-01-08T16:47:53.711Z,19.00
2018-01-08T16:50:19.732Z,19.33
2018-01-08T16:52:45.754Z,17.57
2018-01-08T16:55:12.477Z,18.10
2018-01-08T16:57:38.434Z,17.90
2018-01-08T17:00:04.429Z,19.63
2018-01-08T17:02:30.419Z,18.10
2018-01-08T17:04:57.195Z,18.83
2018-01-08T17:07:23.157Z,18.97
2018-01-08T17:09:49.187Z,18.87
2018-01-08T17:12:15.166Z,18.70
2018-01-08T17:14:41.937Z,17.60
2018-01-08T17:17:08.625Z,20.90
2018-01-08T17:22:07.356Z,19.93
2018-01-08T17:24:33.395Z,17.93
2018-01-08T17:26:59.398Z,18.63
2018-01-08T17:29:26.161Z,19.57
2018-01-08T17:31:52.151Z,18.83
2018-01-08T17:34:18.192Z,19.67
2018-01-08T17:36:44.173Z,18.00
2018-01-08T17:39:10.157Z,19.50
2018-01-08T17:41:36.144Z,18.30
2018-01-08T17:44:02.090Z,17.40
2018-01-08T17:46:28.103Z,18.20
2018-01-08T17:48:54.827Z,17.93
2018-01-08T17:51:20.871Z,17.60
2018-01-08T17:53:48.337Z,20.83
2018-01-08T17:56:14.317Z,19.17
2018-01-08T17:58:40.303Z,18.40
2018-01-08T18:01:06.290Z,20.37
2018-01-08T18:03:32.273Z,18.73
2018-01-08T18:05:58.291Z,19.23
2018-01-08T18:08:24.265Z,19.87
2018-01-08T18:10:50.240Z,18.90
2018-01-08T18:13:16.304Z,18.57
2018-01-08T18:15:42.289Z,18.10
2018-01-08T18:18:09.019Z,19.53
2018-01-08T18:20:35.057Z,20.10
2018-01-08T18:23:01.119Z,20.30
2018-01-08T18:25:27.805Z,18.57
2018-01-08T18:27:53.827Z,18.50
2018-01-08T18:30:19.835Z,19.33
2018-01-08T18:32:46.614Z,18.07
2018-01-08T18:35:12.677Z,20.50
2018-01-08T18:37:38.665Z,20.40
2018-01-08T18:40:05.349Z,18.63
2018-01-08T18:42:31.347Z,20.77
2018-01-08T18:44:57.367Z,19.90
2018-01-08T18:47:24.108Z,20.77
2018-01-08T18:49:50.125Z,18.87
2018-01-08T18:52:16.242Z,18.13
2018-01-08T18:54:42.441Z,17.40
2018-01-08T18:57:08.463Z,17.80
2018-01-08T18:59:34.409Z,18.57
2018-01-08T19:02:00.449Z,20.17
2018-01-08T19:04:26.606Z,19.10
2018-01-08T19:06:53.383Z,22.17
2018-01-08T19:09:19.445Z,23.93
2018-01-08T19:11:45.478Z,21.87
2018-01-08T19:14:11.846Z,22.60
2018-01-08T19:16:37.847Z,26.00
2018-01-08T19:19:04.048Z,22.90
2018-01-08T19:21:30.860Z,19.50
2018-01-08T19:23:56.821Z,25.17
2018-01-08T19:26:22.793Z,20.97
2018-01-08T19:28:49.637Z,20.43
2018-01-08T19:31:15.673Z,24.20
2018-01-08T19:33:41.697Z,25.23
2018-01-08T19:36:07.683Z,28.77
2018-01-08T19:38:33.669Z,23.90
2018-01-08T19:40:59.680Z,20.97
2018-01-08T19:43:25.657Z,20.30
2018-01-08T19:45:52.416Z,18.57
2018-01-08T19:48:19.165Z,18.20
2018-01-08T19:50:45.193Z,18.90
2018-01-08T19:53:11.231Z,20.20
2018-01-08T19:55:37.228Z,18.67
2018-01-08T19:58:03.265Z,19.20
2018-01-08T20:00:29.297Z,19.13
2018-01-08T20:02:55.285Z,19.07
2018-01-08T20:05:21.382Z,18.90
2018-01-08T20:07:47.596Z,19.63
2018-01-08T20:10:13.581Z,17.63
2018-01-08T20:12:39.585Z,18.87
2018-01-08T20:15:05.615Z,17.27
2018-01-08T20:17:31.616Z,18.20
2018-01-08T20:19:58.397Z,17.20
2018-01-08T20:22:24.396Z,17.57
2018-01-08T20:24:51.200Z,17.53
2018-01-08T20:27:17.279Z,17.43
2018-01-08T20:29:43.312Z,19.60
2018-01-08T20:32:09.324Z,16.97
2018-01-08T20:34:35.369Z,17.63
2018-01-08T20:37:01.373Z,17.73
2018-01-08T20:39:27.381Z,17.90
2018-01-08T20:41:53.456Z,17.10
2018-01-08T20:44:19.489Z,17.77
2018-01-08T20:46:45.577Z,15.00
2018-01-08T20:49:11.620Z,17.60
2018-01-08T20:51:37.613Z,17.80
2018-01-08T20:54:03.661Z,17.57
2018-01-08T20:56:29.696Z,17.27
2018-01-08T20:58:55.673Z,17.57
2018-01-08T21:01:21.817Z,15.37
2018-01-08T21:03:48.647Z,15.30
2018-01-08T21:06:14.688Z,15.90
2018-01-08T21:08:40.687Z,15.73
2018-01-08T21:11:06.725Z,15.73
2018-01-08T21:13:32.720Z,15.47
2018-01-08T21:15:58.743Z,17.77
2018-01-08T21:18:24.880Z,15.97
2018-01-08T21:20:50.954Z,16.70
2018-01-08T21:23:17.777Z,15.77
2018-01-08T21:25:43.781Z,17.85
2018-01-08T21:28:09.825Z,16.17
2018-01-08T21:30:35.829Z,17.87
2018-01-08T21:33:01.812Z,21.07
2018-01-08T21:35:27.839Z,49.30
2018-01-08T21:37:53.841Z,47.73
2018-01-08T21:40:19.925Z,35.00
2018-01-08T21:42:45.897Z,24.37
2018-01-08T21:45:11.932Z,17.73
2018-01-08T21:47:38.671Z,18.30
2018-01-08T21:50:04.712Z,16.83
2018-01-08T21:52:30.741Z,16.67
2018-01-08T21:54:56.744Z,17.03
2018-01-08T21:57:22.779Z,18.57
2018-01-08T21:59:48.787Z,17.60
2018-01-08T22:02:14.777Z,18.70
2018-01-08T22:04:40.940Z,17.70
2018-01-08T22:07:07.663Z,18.30
2018-01-08T22:09:33.688Z,17.53
2018-01-08T22:11:59.695Z,17.00
2018-01-08T22:14:25.711Z,17.33
2018-01-08T22:16:52.459Z,16.63
2018-01-08T22:19:19.262Z,17.23
2018-01-08T22:21:45.239Z,16.30
2018-01-08T22:24:11.233Z,16.00
2018-01-08T22:26:37.247Z,17.43
2018-01-08T22:29:03.288Z,16.20
2018-01-08T22:31:29.317Z,16.70
2018-01-08T22:33:55.324Z,18.73
2018-01-08T22:36:21.350Z,17.07
2018-01-08T22:38:47.375Z,16.40
2018-01-08T22:41:13.404Z,17.10
2018-01-08T22:43:39.397Z,17.83
2018-01-08T22:46:05.415Z,16.17
2018-01-08T22:48:32.159Z,16.20
2018-01-08T22:50:58.959Z,17.17
2018-01-08T22:53:24.955Z,16.90
2018-01-08T22:55:51.705Z,15.73
2018-01-08T22:58:17.649Z,16.10
2018-01-08T23:00:44.414Z,15.97
2018-01-08T23:03:11.160Z,16.43
2018-01-08T23:05:37.869Z,16.67
2018-01-08T23:08:03.888Z,15.73
2018-01-08T23:10:29.907Z,17.23
2018-01-08T23:12:55.930Z,14.70
2018-01-08T23:15:22.651Z,16.80
2018-01-08T23:17:48.646Z,17.80
2018-01-08T23:20:14.640Z,16.83
2018-01-08T23:22:41.332Z,16.10
2018-01-08T23:25:07.313Z,16.47
2018-01-08T23:27:33.299Z,18.30
2018-01-08T23:29:59.522Z,17.70
2018-01-08T23:32:26.251Z,17.83
2018-01-08T23:34:52.203Z,17.83
2018-01-08T23:37:18.995Z,17.07
2018-01-08T23:39:44.945Z,16.30
2018-01-08T23:42:10.917Z,17.87
2018-01-08T23:44:36.917Z,16.03
2018-01-08T23:47:02.923Z,17.77
2018-01-08T23:49:28.912Z,16.10
2018-01-08T23:51:54.889Z,17.47
2018-01-08T23:54:21.709Z,16.77
2018-01-08T23:56:47.680Z,15.53
2018-01-08T23:59:13.633Z,15.77
